sensor_id;sensor_type;location;lat;lon;timestamp;pressure;altitude;pressure_sealevel;temperature;humidity
76156;BME280;64906;51.290;7.348;2023-03-23T00:01:13;97587.63;;;20.23;42.94
76156;BME280;64906;51.290;7.348;2023-03-23T00:03:40;97585.22;;;20.21;43.10
76156;BME280;64906;51.290;7.348;2023-03-23T00:06:07;97595.03;;;20.22;43.18
76156;BME280;64906;51.290;7.348;2023-03-23T00:08:36;97582.78;;;20.20;42.94
76156;BME280;64906;51.290;7.348;2023-03-23T00:11:28;97579.22;;;20.19;42.89
76156;BME280;64906;51.290;7.348;2023-03-23T00:13:55;97574.72;;;20.15;42.92
76156;BME280;64906;51.290;7.348;2023-03-23T00:16:24;97569.09;;;20.20;43.26
76156;BME280;64906;51.290;7.348;2023-03-23T00:19:09;97562.28;;;20.17;43.23
76156;BME280;64906;51.290;7.348;2023-03-23T00:21:37;97565.84;;;20.18;42.85
76156;BME280;64906;51.290;7.348;2023-03-23T00:26:29;97557.44;;;20.14;43.21
76156;BME280;64906;51.290;7.348;2023-03-23T00:28:59;97555.22;;;20.16;42.78
76156;BME280;64906;51.290;7.348;2023-03-23T00:31:26;97546.19;;;20.16;42.95
76156;BME280;64906;51.290;7.348;2023-03-23T00:33:57;97550.50;;;20.17;42.79
76156;BME280;64906;51.290;7.348;2023-03-23T00:36:23;97550.06;;;20.15;42.85
76156;BME280;64906;51.290;7.348;2023-03-23T00:38:48;97545.66;;;20.14;42.92
76156;BME280;64906;51.290;7.348;2023-03-23T00:41:13;97551.13;;;20.14;43.03
76156;BME280;64906;51.290;7.348;2023-03-23T00:43:40;97544.88;;;20.13;43.04
76156;BME280;64906;51.290;7.348;2023-03-23T00:46:05;97538.91;;;20.11;42.91
76156;BME280;64906;51.290;7.348;2023-03-23T00:48:36;97540.00;;;20.10;43.00
76156;BME280;64906;51.290;7.348;2023-03-23T00:51:06;97547.09;;;20.11;43.01
76156;BME280;64906;51.290;7.348;2023-03-23T00:53:38;97539.22;;;20.10;43.00
76156;BME280;64906;51.290;7.348;2023-03-23T00:56:03;97540.31;;;20.08;43.20
76156;BME280;64906;51.290;7.348;2023-03-23T00:58:29;97546.28;;;20.11;43.24
76156;BME280;64906;51.290;7.348;2023-03-23T01:00:54;97545.47;;;20.10;43.22
76156;BME280;64906;51.290;7.348;2023-03-23T01:03:21;97545.81;;;20.08;43.23
76156;BME280;64906;51.290;7.348;2023-03-23T01:05:47;97545.47;;;20.10;43.30
76156;BME280;64906;51.290;7.348;2023-03-23T01:08:13;97549.69;;;20.08;43.17
76156;BME280;64906;51.290;7.348;2023-03-23T01:10:39;97535.16;;;20.07;43.12
76156;BME280;64906;51.290;7.348;2023-03-23T01:13:06;97544.53;;;20.06;42.93
76156;BME280;64906;51.290;7.348;2023-03-23T01:15:31;97539.03;;;20.06;43.28
76156;BME280;64906;51.290;7.348;2023-03-23T01:17:57;97539.38;;;20.04;43.09
76156;BME280;64906;51.290;7.348;2023-03-23T01:20:24;97531.94;;;20.05;42.92
76156;BME280;64906;51.290;7.348;2023-03-23T01:22:51;97545.63;;;20.05;43.24
76156;BME280;64906;51.290;7.348;2023-03-23T01:25:17;97534.22;;;20.03;43.14
76156;BME280;64906;51.290;7.348;2023-03-23T01:27:43;97524.84;;;20.04;43.25
76156;BME280;64906;51.290;7.348;2023-03-23T01:30:11;97517.78;;;20.03;43.39
76156;BME280;64906;51.290;7.348;2023-03-23T01:32:37;97525.19;;;20.02;43.20
76156;BME280;64906;51.290;7.348;2023-03-23T01:35:03;97538.38;;;20.00;43.12
76156;BME280;64906;51.290;7.348;2023-03-23T01:37:29;97534.53;;;20.01;42.98
76156;BME280;64906;51.290;7.348;2023-03-23T01:39:56;97532.13;;;20.00;42.91
76156;BME280;64906;51.290;7.348;2023-03-23T01:42:26;97528.56;;;19.99;43.12
76156;BME280;64906;51.290;7.348;2023-03-23T01:47:21;97527.41;;;20.00;42.88
76156;BME280;64906;51.290;7.348;2023-03-23T01:49:48;97532.13;;;20.00;43.00
76156;BME280;64906;51.290;7.348;2023-03-23T01:52:26;97530.16;;;20.00;43.02
76156;BME280;64906;51.290;7.348;2023-03-23T01:54:55;97525.00;;;19.99;43.07
76156;BME280;64906;51.290;7.348;2023-03-23T01:57:23;97518.72;;;19.98;43.29
76156;BME280;64906;51.290;7.348;2023-03-23T01:59:53;97525.31;;;19.97;43.56
76156;BME280;64906;51.290;7.348;2023-03-23T02:02:21;97515.50;;;19.96;42.99
76156;BME280;64906;51.290;7.348;2023-03-23T02:04:47;97522.59;;;19.97;43.32
76156;BME280;64906;51.290;7.348;2023-03-23T02:07:14;97525.31;;;19.97;42.92
76156;BME280;64906;51.290;7.348;2023-03-23T02:09:40;97531.13;;;19.96;43.05
76156;BME280;64906;51.290;7.348;2023-03-23T02:12:06;97522.59;;;19.97;43.15
76156;BME280;64906;51.290;7.348;2023-03-23T02:14:31;97521.31;;;19.95;42.93
76156;BME280;64906;51.290;7.348;2023-03-23T02:25:33;97523.88;;;19.91;43.28
76156;BME280;64906;51.290;7.348;2023-03-23T02:30:46;97506.28;;;19.92;43.18
76156;BME280;64906;51.290;7.348;2023-03-23T02:36:00;97482.78;;;19.91;43.10
76156;BME280;64906;51.290;7.348;2023-03-23T02:38:33;97464.72;;;19.90;43.17
76156;BME280;64906;51.290;7.348;2023-03-23T02:41:01;97475.69;;;19.90;43.20
76156;BME280;64906;51.290;7.348;2023-03-23T02:43:33;97472.94;;;19.90;43.27
76156;BME280;64906;51.290;7.348;2023-03-23T02:46:04;97453.31;;;19.88;43.02
76156;BME280;64906;51.290;7.348;2023-03-23T02:48:32;97447.34;;;19.86;43.24
76156;BME280;64906;51.290;7.348;2023-03-23T02:51:00;97457.16;;;19.87;43.37
76156;BME280;64906;51.290;7.348;2023-03-23T02:53:28;97452.81;;;19.86;43.20
76156;BME280;64906;51.290;7.348;2023-03-23T02:55:55;97430.09;;;19.86;43.13
76156;BME280;64906;51.290;7.348;2023-03-23T02:58:22;97440.22;;;19.85;43.10
76156;BME280;64906;51.290;7.348;2023-03-23T03:00:50;97433.63;;;19.86;43.24
76156;BME280;64906;51.290;7.348;2023-03-23T03:03:19;97435.88;;;19.84;43.19
76156;BME280;64906;51.290;7.348;2023-03-23T03:08:45;97434.59;;;19.82;43.31
76156;BME280;64906;51.290;7.348;2023-03-23T03:11:16;97436.22;;;19.83;43.19
76156;BME280;64906;51.290;7.348;2023-03-23T03:13:54;97447.97;;;19.83;43.17
76156;BME280;64906;51.290;7.348;2023-03-23T03:18:56;97438.13;;;19.82;43.32
76156;BME280;64906;51.290;7.348;2023-03-23T03:21:26;97445.56;;;19.82;43.13
76156;BME280;64906;51.290;7.348;2023-03-23T03:23:54;97440.69;;;19.79;43.15
76156;BME280;64906;51.290;7.348;2023-03-23T03:26:22;97436.03;;;19.79;43.30
76156;BME280;64906;51.290;7.348;2023-03-23T03:28:52;97438.78;;;19.79;43.28
76156;BME280;64906;51.290;7.348;2023-03-23T03:31:21;97439.59;;;19.80;43.33
76156;BME280;64906;51.290;7.348;2023-03-23T03:33:47;97439.91;;;19.78;43.18
76156;BME280;64906;51.290;7.348;2023-03-23T03:36:24;97425.41;;;19.78;43.60
76156;BME280;64906;51.290;7.348;2023-03-23T03:38:51;97446.03;;;19.75;43.18
76156;BME280;64906;51.290;7.348;2023-03-23T03:41:17;97438.59;;;19.76;43.20
76156;BME280;64906;51.290;7.348;2023-03-23T03:43:43;97436.69;;;19.76;43.14
76156;BME280;64906;51.290;7.348;2023-03-23T03:46:09;97454.25;;;19.75;43.45
76156;BME280;64906;51.290;7.348;2023-03-23T03:48:34;97452.28;;;19.76;43.16
76156;BME280;64906;51.290;7.348;2023-03-23T03:51:00;97462.47;;;19.75;43.39
76156;BME280;64906;51.290;7.348;2023-03-23T03:53:26;97459.22;;;19.73;43.48
76156;BME280;64906;51.290;7.348;2023-03-23T03:55:52;97449.06;;;19.74;43.35
76156;BME280;64906;51.290;7.348;2023-03-23T03:58:21;97461.16;;;19.73;43.28
76156;BME280;64906;51.290;7.348;2023-03-23T04:00:47;97460.34;;;19.72;43.14
76156;BME280;64906;51.290;7.348;2023-03-23T04:03:13;97454.41;;;19.70;43.18
76156;BME280;64906;51.290;7.348;2023-03-23T04:05:38;97459.06;;;19.70;43.22
76156;BME280;64906;51.290;7.348;2023-03-23T04:08:03;97456.00;;;19.71;43.40
76156;BME280;64906;51.290;7.348;2023-03-23T04:10:29;97445.06;;;19.71;43.24
76156;BME280;64906;51.290;7.348;2023-03-23T04:12:55;97446.66;;;19.72;43.39
76156;BME280;64906;51.290;7.348;2023-03-23T04:15:20;97458.25;;;19.69;43.20
76156;BME280;64906;51.290;7.348;2023-03-23T04:17:46;97458.25;;;19.69;43.43
76156;BME280;64906;51.290;7.348;2023-03-23T04:20:12;97437.97;;;19.70;43.32
76156;BME280;64906;51.290;7.348;2023-03-23T04:22:44;97453.09;;;19.68;43.19
76156;BME280;64906;51.290;7.348;2023-03-23T04:25:11;97451.16;;;19.68;43.48
76156;BME280;64906;51.290;7.348;2023-03-23T04:27:38;97450.66;;;19.66;43.39
76156;BME280;64906;51.290;7.348;2023-03-23T04:30:03;97443.78;;;19.69;43.36
76156;BME280;64906;51.290;7.348;2023-03-23T04:32:30;97441.31;;;19.67;43.44
76156;BME280;64906;51.290;7.348;2023-03-23T04:34:56;97451.50;;;19.67;43.18
76156;BME280;64906;51.290;7.348;2023-03-23T04:37:24;97445.53;;;19.65;43.54
76156;BME280;64906;51.290;7.348;2023-03-23T04:39:55;97434.25;;;19.66;43.29
76156;BME280;64906;51.290;7.348;2023-03-23T04:42:29;97438.59;;;19.67;43.47
76156;BME280;64906;51.290;7.348;2023-03-23T04:44:56;97441.66;;;19.66;43.37
76156;BME280;64906;51.290;7.348;2023-03-23T04:47:21;97442.28;;;19.63;43.47
76156;BME280;64906;51.290;7.348;2023-03-23T04:49:47;97441.50;;;19.62;43.40
76156;BME280;64906;51.290;7.348;2023-03-23T04:52:12;97449.41;;;19.64;43.41
76156;BME280;64906;51.290;7.348;2023-03-23T04:54:39;97462.75;;;19.65;43.14
76156;BME280;64906;51.290;7.348;2023-03-23T04:57:04;97460.81;;;19.66;43.40
76156;BME280;64906;51.290;7.348;2023-03-23T04:59:29;97469.34;;;19.64;43.39
76156;BME280;64906;51.290;7.348;2023-03-23T05:01:56;97461.94;;;19.65;43.44
76156;BME280;64906;51.290;7.348;2023-03-23T05:04:22;97460.81;;;19.66;43.45
76156;BME280;64906;51.290;7.348;2023-03-23T05:06:51;97463.22;;;19.67;43.39
76156;BME280;64906;51.290;7.348;2023-03-23T05:09:16;97464.03;;;19.68;43.32
76156;BME280;64906;51.290;7.348;2023-03-23T05:11:42;97469.50;;;19.68;43.55
76156;BME280;64906;51.290;7.348;2023-03-23T05:14:07;97467.59;;;19.68;43.53
76156;BME280;64906;51.290;7.348;2023-03-23T05:16:32;97459.88;;;19.70;43.29
76156;BME280;64906;51.290;7.348;2023-03-23T05:18:58;97457.59;;;19.72;43.60
76156;BME280;64906;51.290;7.348;2023-03-23T05:21:23;97464.72;;;19.73;43.66
76156;BME280;64906;51.290;7.348;2023-03-23T05:23:48;97465.19;;;19.75;43.52
76156;BME280;64906;51.290;7.348;2023-03-23T05:26:20;97464.88;;;19.77;43.76
76156;BME280;64906;51.290;7.348;2023-03-23T05:28:46;97466.16;;;19.79;43.38
76156;BME280;64906;51.290;7.348;2023-03-23T05:31:11;97472.13;;;19.81;43.60
76156;BME280;64906;51.290;7.348;2023-03-23T05:33:38;97474.88;;;19.81;43.40
76156;BME280;64906;51.290;7.348;2023-03-23T05:36:04;97465.53;;;19.82;43.45
76156;BME280;64906;51.290;7.348;2023-03-23T05:38:31;97473.41;;;19.84;43.57
76156;BME280;64906;51.290;7.348;2023-03-23T05:41:00;97469.56;;;19.85;43.77
76156;BME280;64906;51.290;7.348;2023-03-23T05:43:26;97466.19;;;19.88;43.66
76156;BME280;64906;51.290;7.348;2023-03-23T05:45:51;97470.53;;;19.89;43.76
76156;BME280;64906;51.290;7.348;2023-03-23T05:48:17;97474.41;;;19.88;43.90
76156;BME280;64906;51.290;7.348;2023-03-23T05:50:42;97480.69;;;19.88;43.78
76156;BME280;64906;51.290;7.348;2023-03-23T05:53:07;97485.03;;;19.89;43.95
76156;BME280;64906;51.290;7.348;2023-03-23T05:55:33;97494.06;;;19.90;43.86
76156;BME280;64906;51.290;7.348;2023-03-23T05:57:58;97487.78;;;19.89;43.83
76156;BME280;64906;51.290;7.348;2023-03-23T06:00:24;97476.50;;;19.91;43.90
76156;BME280;64906;51.290;7.348;2023-03-23T06:02:54;97484.72;;;19.91;44.02
76156;BME280;64906;51.290;7.348;2023-03-23T06:05:19;97491.00;;;19.91;43.94
76156;BME280;64906;51.290;7.348;2023-03-23T06:07:45;97488.75;;;19.93;43.93
76156;BME280;64906;51.290;7.348;2023-03-23T06:10:10;97489.22;;;19.95;43.93
76156;BME280;64906;51.290;7.348;2023-03-23T06:12:37;97489.72;;;19.97;43.87
76156;BME280;64906;51.290;7.348;2023-03-23T06:15:04;97492.13;;;19.99;44.30
76156;BME280;64906;51.290;7.348;2023-03-23T06:17:31;97491.63;;;19.97;44.21
76156;BME280;64906;51.290;7.348;2023-03-23T06:19:56;97495.69;;;19.99;44.33
76156;BME280;64906;51.290;7.348;2023-03-23T06:22:22;97499.25;;;20.00;44.18
76156;BME280;64906;51.290;7.348;2023-03-23T06:24:48;97516.13;;;20.02;44.36
76156;BME280;64906;51.290;7.348;2023-03-23T06:27:14;97508.75;;;20.02;44.36
76156;BME280;64906;51.290;7.348;2023-03-23T06:29:41;97504.06;;;20.03;44.32
76156;BME280;64906;51.290;7.348;2023-03-23T06:32:06;97516.31;;;20.05;44.31
76156;BME280;64906;51.290;7.348;2023-03-23T06:34:32;97515.19;;;20.07;44.52
76156;BME280;64906;51.290;7.348;2023-03-23T06:36:57;97517.63;;;20.08;44.37
76156;BME280;64906;51.290;7.348;2023-03-23T06:39:23;97522.78;;;20.10;44.45
76156;BME280;64906;51.290;7.348;2023-03-23T06:41:49;97521.97;;;20.09;44.29
76156;BME280;64906;51.290;7.348;2023-03-23T06:44:14;97514.56;;;20.10;44.32
76156;BME280;64906;51.290;7.348;2023-03-23T06:46:41;97521.31;;;20.12;44.39
76156;BME280;64906;51.290;7.348;2023-03-23T06:49:06;97508.75;;;20.11;44.28
76156;BME280;64906;51.290;7.348;2023-03-23T06:51:32;97521.31;;;20.12;44.33
76156;BME280;64906;51.290;7.348;2023-03-23T06:53:57;97524.56;;;20.14;44.55
76156;BME280;64906;51.290;7.348;2023-03-23T06:56:23;97523.72;;;20.14;44.56
76156;BME280;64906;51.290;7.348;2023-03-23T06:58:49;97515.97;;;20.07;44.27
76156;BME280;64906;51.290;7.348;2023-03-23T07:01:14;97523.72;;;20.14;44.47
76156;BME280;64906;51.290;7.348;2023-03-23T07:03:41;97515.22;;;20.15;44.31
76156;BME280;64906;51.290;7.348;2023-03-23T07:06:07;97518.25;;;20.14;44.56
76156;BME280;64906;51.290;7.348;2023-03-23T07:08:33;97524.25;;;20.16;44.71
76156;BME280;64906;51.290;7.348;2023-03-23T07:10:58;97530.56;;;20.16;44.73
76156;BME280;64906;51.290;7.348;2023-03-23T07:13:24;97537.97;;;20.16;44.89
76156;BME280;64906;51.290;7.348;2023-03-23T07:15:50;97535.72;;;20.18;44.64
76156;BME280;64906;51.290;7.348;2023-03-23T07:18:16;97540.88;;;20.19;44.74
76156;BME280;64906;51.290;7.348;2023-03-23T07:20:41;97541.97;;;20.18;44.81
76156;BME280;64906;51.290;7.348;2023-03-23T07:23:07;97541.69;;;20.20;45.62
76156;BME280;64906;51.290;7.348;2023-03-23T07:25:34;97547.16;;;20.20;44.75
76156;BME280;64906;51.290;7.348;2023-03-23T07:28:00;97533.47;;;20.20;44.90
76156;BME280;64906;51.290;7.348;2023-03-23T07:30:26;97536.66;;;20.22;44.76
76156;BME280;64906;51.290;7.348;2023-03-23T07:32:52;97541.53;;;20.25;44.82
76156;BME280;64906;51.290;7.348;2023-03-23T07:35:18;97534.41;;;20.24;44.67
76156;BME280;64906;51.290;7.348;2023-03-23T07:37:43;97538.78;;;20.25;44.65
76156;BME280;64906;51.290;7.348;2023-03-23T07:40:09;97534.91;;;20.26;44.80
76156;BME280;64906;51.290;7.348;2023-03-23T07:42:41;97549.09;;;20.28;44.54
76156;BME280;64906;51.290;7.348;2023-03-23T07:45:08;97528.78;;;20.29;44.56
76156;BME280;64906;51.290;7.348;2023-03-23T07:47:33;97535.06;;;20.29;44.63
76156;BME280;64906;51.290;7.348;2023-03-23T07:49:59;97541.34;;;20.30;44.37
76156;BME280;64906;51.290;7.348;2023-03-23T07:52:24;97541.06;;;20.31;44.28
76156;BME280;64906;51.290;7.348;2023-03-23T07:54:49;97536.34;;;20.32;44.73
76156;BME280;64906;51.290;7.348;2023-03-23T07:57:15;97530.88;;;20.32;44.61
76156;BME280;64906;51.290;7.348;2023-03-23T07:59:40;97538.78;;;20.33;44.64
76156;BME280;64906;51.290;7.348;2023-03-23T08:02:08;97532.97;;;20.35;44.37
76156;BME280;64906;51.290;7.348;2023-03-23T08:04:34;97527.16;;;20.36;44.42
76156;BME280;64906;51.290;7.348;2023-03-23T08:07:03;97538.13;;;20.36;44.45
76156;BME280;64906;51.290;7.348;2023-03-23T08:09:29;97531.88;;;20.36;44.29
76156;BME280;64906;51.290;7.348;2023-03-23T08:11:55;97537.03;;;20.37;44.22
76156;BME280;64906;51.290;7.348;2023-03-23T08:14:21;97550.72;;;20.37;44.46
76156;BME280;64906;51.290;7.348;2023-03-23T08:16:46;97544.91;;;20.39;44.36
76156;BME280;64906;51.290;7.348;2023-03-23T08:19:13;97547.66;;;20.39;44.44
76156;BME280;64906;51.290;7.348;2023-03-23T08:21:38;97549.25;;;20.40;44.30
76156;BME280;64906;51.290;7.348;2023-03-23T08:24:04;97550.41;;;20.39;44.21
76156;BME280;64906;51.290;7.348;2023-03-23T08:26:30;97550.06;;;20.40;44.03
76156;BME280;64906;51.290;7.348;2023-03-23T08:28:55;97547.81;;;20.42;43.99
76156;BME280;64906;51.290;7.348;2023-03-23T08:31:21;97549.44;;;20.43;44.21
76156;BME280;64906;51.290;7.348;2023-03-23T08:33:46;97546.38;;;20.45;44.22
76156;BME280;64906;51.290;7.348;2023-03-23T08:36:12;97552.66;;;20.45;44.21
76156;BME280;64906;51.290;7.348;2023-03-23T08:38:38;97551.53;;;20.46;43.89
76156;BME280;64906;51.290;7.348;2023-03-23T08:41:05;97549.91;;;20.45;44.24
76156;BME280;64906;51.290;7.348;2023-03-23T08:43:31;97550.41;;;20.47;44.01
76156;BME280;64906;51.290;7.348;2023-03-23T08:45:58;97549.28;;;20.48;44.26
76156;BME280;64906;51.290;7.348;2023-03-23T08:48:23;97552.00;;;20.48;44.16
76156;BME280;64906;51.290;7.348;2023-03-23T08:50:49;97559.41;;;20.48;44.26
76156;BME280;64906;51.290;7.348;2023-03-23T08:53:15;97561.06;;;20.49;44.27
76156;BME280;64906;51.290;7.348;2023-03-23T08:55:41;97559.09;;;20.49;44.19
76156;BME280;64906;51.290;7.348;2023-03-23T08:58:08;97548.94;;;20.50;44.10
76156;BME280;64906;51.290;7.348;2023-03-23T09:00:33;97556.84;;;20.51;44.35
76156;BME280;64906;51.290;7.348;2023-03-23T09:02:59;97569.13;;;20.54;44.06
76156;BME280;64906;51.290;7.348;2023-03-23T09:05:26;97578.94;;;20.55;44.21
76156;BME280;64906;51.290;7.348;2023-03-23T09:07:54;97582.84;;;20.54;44.10
76156;BME280;64906;51.290;7.348;2023-03-23T09:10:21;97578.94;;;20.55;44.14
76156;BME280;64906;51.290;7.348;2023-03-23T09:12:47;97586.06;;;20.56;44.09
76156;BME280;64906;51.290;7.348;2023-03-23T09:15:15;97584.44;;;20.55;44.01
76156;BME280;64906;51.290;7.348;2023-03-23T09:17:44;97593.16;;;20.57;44.59
76156;BME280;64906;51.290;7.348;2023-03-23T09:20:11;97585.41;;;20.59;44.43
76156;BME280;64906;51.290;7.348;2023-03-23T09:22:39;97587.34;;;20.58;44.28
76156;BME280;64906;51.290;7.348;2023-03-23T09:25:10;97587.66;;;20.57;44.16
76156;BME280;64906;51.290;7.348;2023-03-23T09:27:36;97583.78;;;20.58;44.06
76156;BME280;64906;51.290;7.348;2023-03-23T09:30:05;97597.50;;;20.58;44.30
76156;BME280;64906;51.290;7.348;2023-03-23T09:32:36;97601.88;;;20.59;44.36
76156;BME280;64906;51.290;7.348;2023-03-23T09:35:02;97595.25;;;20.60;44.31
76156;BME280;64906;51.290;7.348;2023-03-23T09:37:28;97594.09;;;20.61;44.19
76156;BME280;64906;51.290;7.348;2023-03-23T09:39:54;97601.22;;;20.62;43.93
76156;BME280;64906;51.290;7.348;2023-03-23T09:45:49;97599.75;;;20.64;44.05
76156;BME280;64906;51.290;7.348;2023-03-23T09:48:37;97606.38;;;20.63;44.13
76156;BME280;64906;51.290;7.348;2023-03-23T09:53:57;97611.53;;;20.65;43.89
76156;BME280;64906;51.290;7.348;2023-03-23T09:56:25;97604.13;;;20.65;44.00
76156;BME280;64906;51.290;7.348;2023-03-23T10:01:59;97603.81;;;20.67;44.02
76156;BME280;64906;51.290;7.348;2023-03-23T10:04:45;97600.75;;;20.68;43.92
76156;BME280;64906;51.290;7.348;2023-03-23T10:07:15;97603.47;;;20.68;43.78
76156;BME280;64906;51.290;7.348;2023-03-23T10:09:43;97599.59;;;20.69;43.80
76156;BME280;64906;51.290;7.348;2023-03-23T10:14:59;97610.25;;;20.71;43.60
76156;BME280;64906;51.290;7.348;2023-03-23T10:17:32;97609.47;;;20.70;43.91
76156;BME280;64906;51.290;7.348;2023-03-23T10:20:23;97589.94;;;20.72;43.86
76156;BME280;64906;51.290;7.348;2023-03-23T10:23:54;97588.78;;;20.73;43.56
76156;BME280;64906;51.290;7.348;2023-03-23T10:26:04;97599.13;;;20.76;43.63
76156;BME280;64906;51.290;7.348;2023-03-23T10:28:39;97599.44;;;20.74;43.58
76156;BME280;64906;51.290;7.348;2023-03-23T10:31:10;97612.81;;;20.76;43.59
76156;BME280;64906;51.290;7.348;2023-03-23T10:33:48;97611.22;;;20.75;43.47
76156;BME280;64906;51.290;7.348;2023-03-23T10:36:30;97613.47;;;20.73;43.83
76156;BME280;64906;51.290;7.348;2023-03-23T10:39:09;97615.06;;;20.74;43.59
76156;BME280;64906;51.290;7.348;2023-03-23T10:41:36;97613.16;;;20.74;43.72
76156;BME280;64906;51.290;7.348;2023-03-23T10:44:23;97613.16;;;20.74;43.89
76156;BME280;64906;51.290;7.348;2023-03-23T10:47:01;97606.06;;;20.73;43.69
76156;BME280;64906;51.290;7.348;2023-03-23T10:49:36;97616.72;;;20.75;43.68
76156;BME280;64906;51.290;7.348;2023-03-23T10:54:37;97650.44;;;20.75;43.66
76156;BME280;64906;51.290;7.348;2023-03-23T10:57:34;97661.09;;;20.77;43.64
76156;BME280;64906;51.290;7.348;2023-03-23T11:00:28;97679.16;;;20.78;43.68
76156;BME280;64906;51.290;7.348;2023-03-23T11:03:58;97681.88;;;20.78;44.02
76156;BME280;64906;51.290;7.348;2023-03-23T11:05:57;97683.03;;;20.77;43.77
76156;BME280;64906;51.290;7.348;2023-03-23T11:08:28;97691.25;;;20.77;43.99
76156;BME280;64906;51.290;7.348;2023-03-23T11:13:33;97694.47;;;20.79;43.97
76156;BME280;64906;51.290;7.348;2023-03-23T11:15:59;97691.72;;;20.79;43.73
76156;BME280;64906;51.290;7.348;2023-03-23T11:18:41;97688.97;;;20.79;43.62
76156;BME280;64906;51.290;7.348;2023-03-23T11:21:11;97690.13;;;20.78;43.88
76156;BME280;64906;51.290;7.348;2023-03-23T11:23:40;97682.72;;;20.78;43.94
76156;BME280;64906;51.290;7.348;2023-03-23T11:26:17;97675.25;;;20.79;43.96
76156;BME280;64906;51.290;7.348;2023-03-23T11:34:24;97659.28;;;20.81;43.70
76156;BME280;64906;51.290;7.348;2023-03-23T11:36:53;97663.97;;;20.80;43.83
76156;BME280;64906;51.290;7.348;2023-03-23T11:39:23;97667.53;;;20.81;43.84
76156;BME280;64906;51.290;7.348;2023-03-23T11:41:49;97652.22;;;20.80;43.86
76156;BME280;64906;51.290;7.348;2023-03-23T11:44:15;97654.13;;;20.79;43.81
76156;BME280;64906;51.290;7.348;2023-03-23T11:46:53;97649.78;;;20.78;43.96
76156;BME280;64906;51.290;7.348;2023-03-23T11:49:49;97668.34;;;20.81;43.62
76156;BME280;64906;51.290;7.348;2023-03-23T11:55:13;97656.56;;;20.81;43.76
76156;BME280;64906;51.290;7.348;2023-03-23T11:57:40;97646.72;;;20.80;43.62
76156;BME280;64906;51.290;7.348;2023-03-23T12:00:17;97655.91;;;20.84;43.73
76156;BME280;64906;51.290;7.348;2023-03-23T12:06:10;97650.91;;;20.86;43.60
76156;BME280;64906;51.290;7.348;2023-03-23T12:17:52;97686.09;;;20.84;43.70
76156;BME280;64906;51.290;7.348;2023-03-23T12:20:37;97668.19;;;20.86;43.39
76156;BME280;64906;51.290;7.348;2023-03-23T12:23:15;97651.72;;;20.86;43.53
76156;BME280;64906;51.290;7.348;2023-03-23T12:26:14;97652.22;;;20.88;43.59
76156;BME280;64906;51.290;7.348;2023-03-23T12:34:01;97654.47;;;20.86;43.50
76156;BME280;64906;51.290;7.348;2023-03-23T12:42:53;97659.31;;;20.89;43.54
76156;BME280;64906;51.290;7.348;2023-03-23T12:48:13;97658.16;;;20.90;43.57
76156;BME280;64906;51.290;7.348;2023-03-23T12:50:47;97653.50;;;20.91;43.46
76156;BME280;64906;51.290;7.348;2023-03-23T12:53:21;97654.63;;;20.90;43.73
76156;BME280;64906;51.290;7.348;2023-03-23T12:56:02;97650.25;;;20.89;43.63
76156;BME280;64906;51.290;7.348;2023-03-23T12:58:32;97662.38;;;20.88;43.89
76156;BME280;64906;51.290;7.348;2023-03-23T13:01:11;97651.91;;;20.90;43.61
76156;BME280;64906;51.290;7.348;2023-03-23T13:06:32;97647.84;;;20.96;43.62
76156;BME280;64906;51.290;7.348;2023-03-23T13:11:47;97657.72;;;20.97;43.66
76156;BME280;64906;51.290;7.348;2023-03-23T13:22:27;97657.56;;;20.93;43.57
76156;BME280;64906;51.290;7.348;2023-03-23T13:25:00;97650.59;;;20.96;43.71
76156;BME280;64906;51.290;7.348;2023-03-23T13:27:27;97649.47;;;20.97;43.82
76156;BME280;64906;51.290;7.348;2023-03-23T13:29:55;97645.94;;;20.96;43.80
76156;BME280;64906;51.290;7.348;2023-03-23T13:32:34;97635.78;;;20.97;43.50
76156;BME280;64906;51.290;7.348;2023-03-23T13:35:03;97636.06;;;20.95;43.81
76156;BME280;64906;51.290;7.348;2023-03-23T13:37:30;97634.13;;;20.96;43.81
76156;BME280;64906;51.290;7.348;2023-03-23T13:40:26;97632.53;;;20.95;43.39
76156;BME280;64906;51.290;7.348;2023-03-23T13:42:58;97625.91;;;20.96;43.77
76156;BME280;64906;51.290;7.348;2023-03-23T13:45:35;97640.75;;;20.95;43.80
76156;BME280;64906;51.290;7.348;2023-03-23T13:48:17;97640.75;;;20.95;43.69
76156;BME280;64906;51.290;7.348;2023-03-23T13:50:49;97652.22;;;20.97;43.48
76156;BME280;64906;51.290;7.348;2023-03-23T13:53:26;97636.88;;;20.96;43.80
76156;BME280;64906;51.290;7.348;2023-03-23T13:56:06;97634.13;;;20.96;43.36
76156;BME280;64906;51.290;7.348;2023-03-23T13:59:03;97649.31;;;21.02;43.81
76156;BME280;64906;51.290;7.348;2023-03-23T14:01:36;97644.66;;;21.02;43.74
76156;BME280;64906;51.290;7.348;2023-03-23T14:04:14;97648.69;;;21.05;44.03
76156;BME280;64906;51.290;7.348;2023-03-23T14:06:41;97657.41;;;21.07;43.79
76156;BME280;64906;51.290;7.348;2023-03-23T14:12:05;97654.66;;;21.07;44.47
76156;BME280;64906;51.290;7.348;2023-03-23T14:14:47;97659.03;;;21.08;44.35
76156;BME280;64906;51.290;7.348;2023-03-23T14:17:22;97655.63;;;21.11;44.37
76156;BME280;64906;51.290;7.348;2023-03-23T14:19:54;97655.63;;;21.11;44.10
76156;BME280;64906;51.290;7.348;2023-03-23T14:22:37;97654.50;;;21.12;43.80
76156;BME280;64906;51.290;7.348;2023-03-23T14:25:17;97647.72;;;21.09;44.08
76156;BME280;64906;51.290;7.348;2023-03-23T14:27:44;97658.38;;;21.11;43.88
76156;BME280;64906;51.290;7.348;2023-03-23T14:30:17;97663.06;;;21.10;43.96
76156;BME280;64906;51.290;7.348;2023-03-23T14:32:43;97664.81;;;21.15;43.85
76156;BME280;64906;51.290;7.348;2023-03-23T14:35:30;97664.34;;;21.13;43.95
76156;BME280;64906;51.290;7.348;2023-03-23T14:37:57;97664.34;;;21.13;43.77
76156;BME280;64906;51.290;7.348;2023-03-23T14:40:26;97654.50;;;21.12;43.87
76156;BME280;64906;51.290;7.348;2023-03-23T14:42:51;97662.25;;;21.10;43.98
76156;BME280;64906;51.290;7.348;2023-03-23T14:45:20;97664.66;;;21.11;44.10